Portada
METAR-TAF:

METAR-TAF

Aeropuertos :

Timimoun, Argelia

latitud: 29-15N, longitud: 000-17E, altitud: 312 m

Observación

El informe se hizo hace 44 minutos, a las 00:00 UTC
Viento 8 kt del este-noreste
Temperatura 29°C
Humedad 23%
Presión 1016 hPa
Visibilidad 10 km o más
sin nubes por debajo de 1500 m y sin presencia de cumulonimbus.

METAR: DAUT 190000Z 06008KT CAVOK 29/06 Q1016

Hora: 01:44 (00:44 UTC)

Pronóstico

El informe se hizo hace 1 hora y 44 minutos, a las 23:00 UTC
Pronóstico válido del 19 a las 00 UTC al 19 a las 09 UTC
Viento 8 kt del noreste
Visibilidad 10 km o más
sin nubes por debajo de 1500 m y sin presencia de cumulonimbus.

TAF: DAUT 182300Z 1900/1909 04008KT CAVOK

Observaciones y pronósticos meteorológicos de más de 4000 aeropuertos (mensajes METAR y TAF).

Los puntos amarillos y rojos representan las estaciones disponibles.

Ponga el ratón en el punto deseado para ver el nombre de la estación.

Haga clic para ver las observaciones y los pronósticos meteorológicos.

Para cambiar el mapa : haga clic en los botones verdes con una cruz de color negro para hacer un zoom, en el botón verde con un guión para alejar o en las flechas verdes para mapas adyacentes.


METAR-TAF: